createdAt,value
2022-10-10T00:01:41.527Z,22.27
2022-10-10T00:04:09.574Z,68.57
2022-10-10T00:06:37.563Z,15.33
2022-10-10T00:09:06.740Z,30.30
2022-10-10T00:11:34.819Z,15.87
2022-10-10T00:14:04.274Z,12.77
2022-10-10T00:16:32.403Z,33.10
2022-10-10T00:19:00.435Z,45.70
2022-10-10T00:21:28.455Z,10.27
2022-10-10T00:23:56.476Z,40.67
2022-10-10T00:26:24.487Z,67.13
2022-10-10T00:28:52.527Z,20.63
2022-10-10T00:31:21.903Z,32.20
2022-10-10T00:33:49.960Z,65.00
2022-10-10T00:36:20.489Z,25.80
2022-10-10T00:38:48.906Z,62.20
2022-10-10T00:41:17.153Z,16.27
2022-10-10T00:44:01.555Z,40.27
2022-10-10T00:46:30.935Z,114.53
2022-10-10T00:48:59.178Z,18.27
2022-10-10T00:51:27.303Z,26.23
2022-10-10T00:53:59.784Z,33.30
2022-10-10T00:56:31.956Z,36.53
2022-10-10T00:59:04.291Z,77.60
2022-10-10T01:01:33.780Z,98.20
2022-10-10T01:04:03.323Z,15.93
2022-10-10T01:06:31.474Z,34.17
2022-10-10T01:09:00.032Z,38.57
2022-10-10T01:11:39.179Z,97.87
2022-10-10T01:14:17.786Z,26.00
2022-10-10T01:16:57.574Z,37.93
2022-10-10T01:19:57.829Z,32.67
2022-10-10T01:22:33.979Z,62.20
2022-10-10T01:25:15.202Z,54.70
2022-10-10T01:27:46.060Z,17.93
2022-10-10T01:30:18.778Z,49.03
2022-10-10T01:32:53.942Z,42.83
2022-10-10T01:35:45.187Z,21.50
2022-10-10T01:38:23.969Z,21.63
2022-10-10T01:40:57.749Z,14.93
2022-10-10T01:43:26.794Z,62.33
2022-10-10T01:45:56.191Z,27.03
2022-10-10T01:48:29.206Z,25.03
2022-10-10T01:51:17.339Z,29.07
2022-10-10T01:53:51.815Z,30.90
2022-10-10T01:56:31.575Z,30.93
2022-10-10T01:59:11.535Z,13.70
2022-10-10T02:01:48.194Z,30.17
2022-10-10T02:04:23.764Z,93.07
2022-10-10T02:06:55.726Z,52.10
2022-10-10T02:09:29.681Z,63.47
2022-10-10T02:11:59.475Z,29.43
2022-10-10T02:14:31.591Z,42.63
2022-10-10T02:17:03.121Z,16.23
2022-10-10T02:19:32.061Z,17.17
2022-10-10T02:22:01.518Z,22.13
2022-10-10T02:24:29.787Z,28.43
2022-10-10T02:27:02.416Z,26.40
2022-10-10T02:29:34.123Z,25.50
2022-10-10T02:32:09.503Z,21.60
2022-10-10T02:34:39.839Z,62.93
2022-10-10T02:37:12.455Z,46.97
2022-10-10T02:39:45.056Z,18.27
2022-10-10T02:42:17.455Z,38.93
2022-10-10T02:44:46.530Z,31.70
2022-10-10T02:47:16.175Z,80.60
2022-10-10T02:49:44.857Z,24.70
2022-10-10T02:52:15.941Z,39.17
2022-10-10T02:54:44.461Z,30.33
2022-10-10T02:57:12.756Z,111.97
2022-10-10T02:59:40.949Z,13.73
2022-10-10T03:02:09.209Z,31.63
2022-10-10T03:04:38.930Z,11.67
2022-10-10T03:07:07.036Z,22.03
2022-10-10T03:09:35.150Z,29.23
2022-10-10T03:12:03.242Z,54.27
2022-10-10T03:14:31.250Z,24.17
2022-10-10T03:16:59.341Z,43.77
2022-10-10T03:19:27.548Z,46.10
2022-10-10T03:21:56.903Z,52.73
2022-10-10T03:24:25.006Z,228.47
2022-10-10T03:26:53.008Z,55.57
2022-10-10T03:29:21.189Z,83.40
2022-10-10T03:31:49.234Z,29.23
2022-10-10T03:34:17.423Z,37.77
2022-10-10T03:36:45.423Z,53.10
2022-10-10T03:39:14.792Z,127.90
2022-10-10T03:41:42.778Z,34.93
2022-10-10T03:44:10.814Z,117.53
2022-10-10T03:46:38.826Z,88.40
2022-10-10T03:49:06.834Z,45.57
2022-10-10T03:51:34.837Z,121.77
2022-10-10T03:54:02.844Z,21.53
2022-10-10T03:56:32.389Z,35.70
2022-10-10T03:59:00.918Z,34.50
2022-10-10T04:01:30.097Z,27.37
2022-10-10T04:03:58.125Z,22.07
2022-10-10T04:06:27.525Z,66.47
2022-10-10T04:08:55.528Z,26.63
2022-10-10T04:11:23.575Z,23.10
2022-10-10T04:13:52.943Z,30.37
2022-10-10T04:16:20.907Z,32.47
2022-10-10T04:18:48.926Z,35.97
2022-10-10T04:21:16.910Z,35.40
2022-10-10T04:23:44.940Z,28.80
2022-10-10T04:26:12.927Z,26.90
2022-10-10T04:28:40.966Z,76.77
2022-10-10T04:31:10.347Z,56.90
2022-10-10T04:33:38.456Z,19.07
2022-10-10T04:36:06.683Z,41.03
2022-10-10T04:38:35.057Z,21.57
2022-10-10T04:41:03.417Z,14.37
2022-10-10T04:43:31.511Z,31.30
2022-10-10T04:45:59.842Z,41.03
2022-10-10T04:48:29.298Z,37.03
2022-10-10T04:50:59.535Z,41.40
2022-10-10T04:53:28.503Z,45.63
2022-10-10T04:55:56.738Z,28.67
2022-10-10T04:58:25.121Z,60.93
2022-10-10T05:00:53.875Z,45.00
2022-10-10T05:03:22.526Z,55.00
2022-10-10T05:05:51.981Z,96.00
2022-10-10T05:08:20.371Z,33.47
2022-10-10T05:10:48.813Z,20.43
2022-10-10T05:13:17.833Z,49.07
2022-10-10T05:15:45.998Z,35.10
2022-10-10T05:18:14.101Z,24.07
2022-10-10T05:20:43.947Z,35.10
2022-10-10T05:23:13.630Z,26.27
2022-10-10T05:25:44.226Z,61.50
2022-10-10T05:28:12.727Z,90.50
2022-10-10T05:30:40.734Z,32.07
2022-10-10T05:33:08.944Z,17.70
2022-10-10T05:35:37.243Z,54.13
2022-10-10T05:38:05.357Z,52.23
2022-10-10T05:40:34.723Z,27.13
2022-10-10T05:43:02.723Z,57.30
2022-10-10T05:45:30.785Z,53.60
2022-10-10T05:47:58.791Z,34.07
2022-10-10T05:50:34.485Z,37.70
2022-10-10T05:53:02.512Z,67.80
2022-10-10T05:55:30.569Z,18.27
2022-10-10T05:57:59.941Z,20.47
2022-10-10T06:00:28.090Z,17.97
2022-10-10T06:02:58.386Z,47.30
2022-10-10T06:05:26.542Z,37.53
2022-10-10T06:08:12.163Z,38.90
2022-10-10T06:10:42.769Z,55.97
2022-10-10T06:13:12.868Z,63.73
2022-10-10T06:15:41.362Z,22.37
2022-10-10T06:18:10.461Z,47.43
2022-10-10T06:20:38.898Z,38.57
2022-10-10T06:23:08.512Z,65.67
2022-10-10T06:25:41.732Z,27.87
2022-10-10T06:28:12.114Z,72.00
2022-10-10T06:30:44.020Z,67.37
2022-10-10T06:33:15.122Z,63.80
2022-10-10T06:35:44.446Z,58.73
2022-10-10T06:38:12.879Z,49.63
2022-10-10T06:40:41.538Z,97.00
2022-10-10T06:43:12.547Z,51.00
2022-10-10T06:45:42.478Z,44.40
2022-10-10T06:48:11.389Z,43.43
2022-10-10T06:50:39.678Z,23.23
2022-10-10T06:53:08.060Z,33.87
2022-10-10T06:55:36.072Z,140.80
2022-10-10T06:58:04.071Z,323.20
2022-10-10T07:00:33.507Z,290.70
2022-10-10T07:03:01.498Z,212.00
2022-10-10T07:05:29.543Z,623.23
2022-10-10T07:07:57.555Z,678.63
2022-10-10T07:10:25.613Z,679.17
2022-10-10T07:12:53.936Z,611.47
2022-10-10T07:15:22.222Z,632.10
2022-10-10T07:17:58.045Z,562.30
2022-10-10T07:20:26.131Z,679.53
2022-10-10T07:22:54.726Z,758.63
2022-10-10T07:25:22.951Z,709.63
2022-10-10T07:27:50.987Z,692.97
2022-10-10T07:30:19.142Z,630.13
2022-10-10T07:32:47.500Z,659.73
2022-10-10T07:35:17.107Z,679.57
2022-10-10T07:37:45.248Z,656.10
2022-10-10T07:40:13.260Z,631.13
2022-10-10T07:42:41.581Z,614.43
2022-10-10T07:45:12.183Z,563.90
2022-10-10T07:47:40.253Z,297.03
2022-10-10T07:50:09.906Z,408.80
2022-10-10T07:52:39.494Z,425.70
2022-10-10T07:55:08.792Z,440.73
2022-10-10T07:57:37.400Z,372.63
2022-10-10T08:00:07.518Z,126.00
2022-10-10T08:02:35.738Z,329.63
2022-10-10T08:05:03.967Z,405.67
2022-10-10T08:07:32.011Z,333.43
2022-10-10T08:10:02.506Z,119.47
2022-10-10T08:12:30.519Z,304.97
2022-10-10T08:14:59.434Z,185.53
2022-10-10T08:17:27.619Z,401.37
2022-10-10T08:19:55.639Z,261.37
2022-10-10T08:22:23.644Z,305.30
2022-10-10T08:24:51.747Z,377.17
2022-10-10T08:27:21.197Z,242.00
2022-10-10T08:29:49.333Z,456.07
2022-10-10T08:32:17.432Z,340.00
2022-10-10T08:34:45.743Z,401.90
2022-10-10T08:37:13.725Z,379.23
2022-10-10T08:39:41.751Z,300.37
2022-10-10T08:42:18.559Z,422.80
2022-10-10T08:44:52.971Z,480.70
2022-10-10T08:47:25.814Z,212.60
2022-10-10T08:49:57.495Z,387.30
2022-10-10T08:52:32.724Z,392.33
2022-10-10T08:55:03.463Z,302.83
2022-10-10T08:57:34.617Z,364.27
2022-10-10T09:00:08.009Z,297.37
2022-10-10T09:02:55.573Z,496.57
2022-10-10T09:05:38.240Z,476.40
2022-10-10T09:08:23.175Z,603.20
2022-10-10T09:10:58.270Z,500.53
2022-10-10T09:13:33.452Z,433.00
2022-10-10T09:16:07.554Z,474.90
2022-10-10T09:18:59.519Z,443.10
2022-10-10T09:21:32.239Z,248.00
2022-10-10T09:24:05.806Z,399.10
2022-10-10T09:26:38.779Z,387.13
2022-10-10T09:29:24.483Z,322.73
2022-10-10T09:31:58.600Z,402.57
2022-10-10T09:34:35.618Z,241.77
2022-10-10T09:37:04.867Z,336.90
2022-10-10T09:39:38.753Z,403.60
2022-10-10T09:42:12.120Z,284.87
2022-10-10T09:44:40.858Z,379.97
2022-10-10T09:47:13.416Z,457.97
2022-10-10T09:49:41.663Z,355.17
2022-10-10T09:52:27.900Z,687.70
2022-10-10T09:55:00.848Z,663.13
2022-10-10T09:57:35.018Z,412.77
2022-10-10T10:00:33.923Z,423.13
2022-10-10T10:03:11.798Z,477.83
2022-10-10T10:05:41.038Z,280.00
2022-10-10T10:08:20.545Z,322.17
2022-10-10T10:10:48.748Z,503.17
2022-10-10T10:13:25.332Z,333.40
2022-10-10T10:16:00.823Z,496.10
2022-10-10T10:18:30.767Z,289.83
2022-10-10T10:21:18.004Z,413.50
2022-10-10T10:23:55.346Z,414.23
2022-10-10T10:26:27.327Z,472.67
2022-10-10T10:28:57.568Z,601.70
2022-10-10T10:31:54.579Z,644.87
2022-10-10T10:34:46.923Z,482.83
2022-10-10T10:37:22.185Z,588.43
2022-10-10T10:40:25.103Z,540.67
2022-10-10T10:43:28.856Z,436.17
2022-10-10T10:46:07.925Z,478.63
2022-10-10T10:48:43.328Z,615.93
2022-10-10T10:51:28.702Z,323.97
2022-10-10T10:54:05.158Z,498.30
2022-10-10T10:56:39.975Z,608.50
2022-10-10T10:59:41.797Z,701.13
2022-10-10T11:02:54.103Z,458.10
2022-10-10T11:05:41.777Z,657.30
2022-10-10T11:08:31.208Z,379.63
2022-10-10T11:11:11.825Z,545.80
2022-10-10T11:13:48.000Z,625.77
2022-10-10T11:16:47.366Z,418.97
2022-10-10T11:19:23.887Z,705.77
2022-10-10T11:21:57.271Z,418.17
2022-10-10T11:24:35.638Z,464.07
2022-10-10T11:27:10.798Z,479.23
2022-10-10T11:29:50.554Z,559.10
2022-10-10T11:32:25.469Z,455.50
2022-10-10T11:35:11.099Z,751.07
2022-10-10T11:37:46.210Z,491.80
2022-10-10T11:40:33.347Z,680.57
2022-10-10T11:43:06.775Z,708.37
2022-10-10T11:45:39.171Z,562.20
2022-10-10T11:48:19.051Z,633.23
2022-10-10T11:50:55.457Z,641.97
2022-10-10T11:53:31.685Z,608.95
2022-10-10T11:56:09.551Z,557.67
2022-10-10T11:58:41.959Z,539.60
2022-10-10T12:01:17.415Z,604.73
2022-10-10T12:03:45.783Z,639.10
2022-10-10T12:06:23.411Z,710.80
2022-10-10T12:08:59.973Z,425.67
2022-10-10T12:11:34.538Z,423.67
2022-10-10T12:14:05.390Z,484.43
2022-10-10T12:16:37.354Z,549.90
2022-10-10T12:19:07.736Z,764.53
2022-10-10T12:21:59.448Z,619.13
2022-10-10T12:24:29.367Z,685.20
2022-10-10T12:27:43.681Z,639.03
2022-10-10T12:30:25.039Z,693.80
2022-10-10T12:32:55.283Z,541.78
2022-10-10T12:35:44.231Z,662.90
2022-10-10T12:38:24.368Z,546.47
2022-10-10T12:41:08.903Z,563.35
2022-10-10T12:43:51.855Z,441.55
2022-10-10T12:46:31.407Z,817.20
2022-10-10T12:49:06.999Z,652.47
2022-10-10T12:51:37.224Z,611.97
2022-10-10T12:54:08.268Z,549.28
2022-10-10T12:56:40.257Z,794.88
2022-10-10T12:59:20.267Z,724.83
2022-10-10T13:01:53.418Z,637.70
2022-10-10T13:04:22.247Z,570.60
2022-10-10T13:06:53.514Z,558.78
2022-10-10T13:09:23.843Z,596.10
2022-10-10T13:11:57.715Z,628.20
2022-10-10T13:14:29.155Z,541.72
2022-10-10T13:16:57.239Z,612.83
2022-10-10T13:19:26.172Z,668.75
2022-10-10T13:21:56.330Z,682.30
2022-10-10T13:24:30.458Z,572.63
2022-10-10T13:26:59.015Z,643.88
2022-10-10T13:29:31.179Z,529.30
2022-10-10T13:32:03.036Z,698.83
2022-10-10T13:34:34.218Z,616.28
2022-10-10T13:37:04.204Z,467.83
2022-10-10T13:39:35.588Z,681.40
2022-10-10T13:42:05.788Z,664.45
2022-10-10T13:44:48.924Z,651.22
2022-10-10T13:47:51.041Z,704.17
2022-10-10T13:50:26.007Z,571.08
2022-10-10T13:53:25.205Z,445.92
2022-10-10T13:56:01.819Z,662.85
2022-10-10T13:58:32.837Z,697.10
2022-10-10T14:01:05.076Z,658.45
2022-10-10T14:03:34.782Z,620.50
2022-10-10T14:06:02.846Z,531.00
2022-10-10T14:08:34.298Z,743.70
2022-10-10T14:11:06.301Z,624.00
2022-10-10T14:13:37.802Z,728.90
2022-10-10T14:16:22.868Z,661.17
2022-10-10T14:18:51.074Z,556.13
2022-10-10T14:21:19.263Z,656.10
2022-10-10T14:23:47.374Z,692.58
2022-10-10T14:26:18.153Z,582.80
2022-10-10T14:28:46.672Z,778.85
2022-10-10T14:31:16.265Z,630.65
2022-10-10T14:33:44.256Z,768.10
2022-10-10T14:36:14.245Z,579.97
2022-10-10T14:38:42.239Z,593.47
2022-10-10T14:41:13.728Z,425.38
2022-10-10T14:43:45.687Z,686.00
2022-10-10T14:46:19.034Z,720.70
2022-10-10T14:48:47.335Z,670.13
2022-10-10T14:51:33.612Z,614.05
2022-10-10T14:54:11.178Z,736.22
2022-10-10T14:57:07.691Z,605.40
2022-10-10T14:59:46.109Z,581.42
2022-10-10T15:02:21.813Z,672.55
2022-10-10T15:04:50.237Z,591.20
2022-10-10T15:07:18.794Z,638.50
2022-10-10T15:10:56.811Z,356.27
2022-10-10T15:12:38.494Z,494.25
2022-10-10T15:15:08.400Z,514.30
2022-10-10T15:17:37.970Z,413.45
2022-10-10T15:20:08.580Z,628.72
2022-10-10T15:22:37.170Z,513.22
2022-10-10T15:25:06.126Z,474.15
2022-10-10T15:27:34.317Z,468.45
2022-10-10T15:30:02.348Z,608.55
2022-10-10T15:32:30.511Z,511.73
2022-10-10T15:35:00.260Z,648.25
2022-10-10T15:37:28.917Z,359.25
2022-10-10T15:39:57.091Z,564.17
2022-10-10T15:42:25.272Z,563.05
2022-10-10T15:44:53.287Z,564.95
2022-10-10T15:47:21.828Z,446.60
2022-10-10T15:49:50.008Z,592.57
2022-10-10T15:52:22.994Z,664.00
2022-10-10T15:54:51.407Z,582.27
2022-10-10T15:57:20.127Z,669.03
2022-10-10T15:59:48.689Z,473.60
2022-10-10T16:02:17.290Z,508.88
2022-10-10T16:04:46.257Z,535.45
2022-10-10T16:07:34.655Z,695.22
2022-10-10T16:10:04.165Z,443.55
2022-10-10T16:12:32.251Z,310.13
2022-10-10T16:15:03.509Z,743.90
2022-10-10T16:17:34.914Z,381.35
2022-10-10T16:20:03.294Z,585.85
2022-10-10T16:22:31.321Z,667.17
2022-10-10T16:27:48.783Z,685.03
2022-10-10T16:30:16.967Z,590.40
2022-10-10T16:32:45.026Z,356.57
2022-10-10T16:35:13.059Z,443.40
2022-10-10T16:37:41.049Z,620.30
2022-10-10T16:40:10.205Z,309.33
2022-10-10T16:42:38.406Z,429.50
2022-10-10T16:45:09.027Z,455.67
2022-10-10T16:47:37.430Z,487.13
2022-10-10T16:50:06.472Z,520.40
2022-10-10T16:52:38.033Z,558.93
2022-10-10T16:55:07.724Z,549.83
2022-10-10T16:57:35.959Z,363.60
2022-10-10T17:00:04.114Z,394.97
2022-10-10T17:02:33.647Z,404.17
2022-10-10T17:05:01.754Z,250.67
2022-10-10T17:07:29.725Z,438.53
2022-10-10T17:09:57.746Z,449.83
2022-10-10T17:12:25.735Z,442.17
2022-10-10T17:14:53.729Z,237.20
2022-10-10T17:17:22.581Z,398.60
2022-10-10T17:19:52.298Z,449.23
2022-10-10T17:22:20.374Z,598.73
2022-10-10T17:24:48.523Z,426.37
2022-10-10T17:27:16.593Z,321.40
2022-10-10T17:29:44.641Z,458.37
2022-10-10T17:32:12.675Z,401.90
2022-10-10T17:34:40.850Z,446.73
2022-10-10T17:37:10.219Z,273.20
2022-10-10T17:39:38.319Z,247.30
2022-10-10T17:42:06.488Z,241.43
2022-10-10T17:44:39.740Z,448.53
2022-10-10T17:47:11.709Z,418.43
2022-10-10T17:49:44.963Z,271.47
2022-10-10T17:52:18.835Z,469.87
2022-10-10T17:54:49.341Z,240.17
2022-10-10T17:57:17.926Z,281.20
2022-10-10T17:59:46.397Z,379.33
2022-10-10T18:02:16.634Z,334.43
2022-10-10T18:04:45.098Z,510.43
2022-10-10T18:07:15.045Z,341.47
2022-10-10T18:09:43.359Z,331.93
2022-10-10T18:12:11.416Z,452.03
2022-10-10T18:14:39.436Z,258.07
2022-10-10T18:17:07.518Z,648.37
2022-10-10T18:19:35.583Z,413.30
2022-10-10T18:22:03.578Z,281.33
2022-10-10T18:24:33.016Z,227.93
2022-10-10T18:27:01.082Z,382.93
2022-10-10T18:29:29.097Z,361.40
2022-10-10T18:31:57.427Z,653.27
2022-10-10T18:34:25.475Z,358.37
2022-10-10T18:36:53.473Z,732.00
2022-10-10T18:39:21.619Z,514.47
2022-10-10T18:41:50.992Z,238.37
2022-10-10T18:44:20.052Z,400.03
2022-10-10T18:46:49.996Z,373.83
2022-10-10T18:49:18.037Z,441.30
2022-10-10T18:51:46.136Z,661.70
2022-10-10T18:54:16.045Z,501.13
2022-10-10T18:56:45.047Z,351.23
2022-10-10T18:59:17.038Z,484.07
2022-10-10T19:01:46.381Z,243.57
2022-10-10T19:04:16.403Z,297.13
2022-10-10T19:06:45.428Z,387.30
2022-10-10T19:09:15.953Z,269.20
2022-10-10T19:11:45.518Z,342.97
2022-10-10T19:14:18.128Z,324.10
2022-10-10T19:16:47.332Z,269.27
2022-10-10T19:19:17.007Z,352.87
2022-10-10T19:21:46.351Z,387.50
2022-10-10T19:24:15.370Z,385.93
2022-10-10T19:26:44.747Z,656.67
2022-10-10T19:29:14.925Z,245.40
2022-10-10T19:31:43.059Z,419.93
2022-10-10T19:34:11.095Z,377.50
2022-10-10T19:36:39.903Z,609.47
2022-10-10T19:39:10.011Z,556.43
2022-10-10T19:41:38.009Z,391.17
2022-10-10T19:44:06.253Z,432.77
2022-10-10T19:46:37.537Z,340.67
2022-10-10T19:49:06.381Z,551.67
2022-10-10T19:51:34.414Z,414.57
2022-10-10T19:54:02.431Z,486.87
2022-10-10T19:56:30.534Z,581.37
2022-10-10T19:59:04.207Z,451.57
2022-10-10T20:01:32.692Z,452.33
2022-10-10T20:04:02.155Z,379.30
2022-10-10T20:06:30.378Z,487.40
2022-10-10T20:08:58.507Z,518.60
2022-10-10T20:11:26.819Z,368.53
2022-10-10T20:13:55.886Z,508.07
2022-10-10T20:16:26.614Z,545.23
2022-10-10T20:18:56.042Z,432.73
2022-10-10T20:21:31.239Z,316.40
2022-10-10T20:23:59.783Z,579.57
2022-10-10T20:26:27.954Z,418.73
2022-10-10T20:28:57.701Z,372.43
2022-10-10T20:31:28.164Z,459.60
2022-10-10T20:34:00.655Z,377.37
2022-10-10T20:36:31.129Z,342.60
2022-10-10T20:39:01.606Z,476.33
2022-10-10T20:41:32.722Z,431.97
2022-10-10T20:44:03.280Z,314.77
2022-10-10T20:46:34.965Z,573.47
2022-10-10T20:49:05.162Z,547.60
2022-10-10T20:51:34.566Z,693.60
2022-10-10T20:54:04.651Z,493.67
2022-10-10T20:56:34.228Z,651.20
2022-10-10T20:59:02.446Z,467.87
2022-10-10T21:01:31.504Z,472.93
2022-10-10T21:04:00.183Z,618.30
2022-10-10T21:06:30.755Z,480.93
2022-10-10T21:09:02.043Z,387.37
2022-10-10T21:11:30.216Z,607.67
2022-10-10T21:13:59.649Z,368.57
2022-10-10T21:16:29.798Z,480.67
2022-10-10T21:18:58.764Z,572.67
2022-10-10T21:21:28.272Z,574.13
2022-10-10T21:23:56.911Z,501.17
2022-10-10T21:26:28.094Z,868.20
2022-10-10T21:28:57.016Z,801.20
2022-10-10T21:31:26.423Z,909.13
2022-10-10T21:33:54.635Z,727.23
2022-10-10T21:36:23.990Z,703.50
2022-10-10T21:38:52.001Z,566.27
2022-10-10T21:41:21.618Z,900.13
2022-10-10T21:43:54.649Z,535.47
2022-10-10T21:46:24.620Z,545.27
2022-10-10T21:48:53.046Z,911.90
2022-10-10T21:51:21.517Z,865.70
2022-10-10T21:53:49.906Z,369.93
2022-10-10T21:56:18.921Z,441.23
2022-10-10T21:58:46.917Z,388.17
2022-10-10T22:01:19.452Z,889.47
2022-10-10T22:03:50.015Z,617.43
2022-10-10T22:06:20.861Z,421.00
2022-10-10T22:08:50.740Z,586.17
2022-10-10T22:11:20.868Z,381.00
2022-10-10T22:13:49.201Z,421.77
2022-10-10T22:16:19.764Z,388.90
2022-10-10T22:18:47.762Z,768.53
2022-10-10T22:21:17.683Z,485.83
2022-10-10T22:23:46.147Z,400.97
2022-10-10T22:26:15.808Z,383.10
2022-10-10T22:28:44.779Z,543.43
2022-10-10T22:31:15.422Z,485.47
2022-10-10T22:33:45.118Z,382.73
2022-10-10T22:36:13.295Z,443.33
2022-10-10T22:38:43.553Z,508.37
2022-10-10T22:41:11.938Z,318.37
2022-10-10T22:43:39.967Z,311.13
2022-10-10T22:46:08.778Z,318.73
2022-10-10T22:48:37.320Z,504.77
2022-10-10T22:51:08.787Z,326.97
2022-10-10T22:53:37.149Z,365.97
2022-10-10T22:56:06.103Z,236.87
2022-10-10T22:58:34.393Z,187.73
2022-10-10T23:01:06.561Z,180.53
2022-10-10T23:03:34.781Z,324.47
2022-10-10T23:06:03.555Z,271.83
2022-10-10T23:08:33.335Z,285.47
2022-10-10T23:11:01.365Z,308.33
2022-10-10T23:13:29.923Z,511.13
2022-10-10T23:15:58.115Z,233.70
2022-10-10T23:18:26.143Z,235.43
2022-10-10T23:20:54.182Z,367.73
2022-10-10T23:23:22.186Z,250.97
2022-10-10T23:25:51.702Z,482.83
2022-10-10T23:28:20.146Z,269.67
2022-10-10T23:30:49.138Z,549.97
2022-10-10T23:33:17.589Z,270.87
2022-10-10T23:35:45.841Z,171.53
2022-10-10T23:38:14.214Z,313.23
2022-10-10T23:40:42.206Z,378.13
2022-10-10T23:43:11.618Z,130.13
2022-10-10T23:45:41.242Z,229.23
2022-10-10T23:48:09.298Z,282.70
2022-10-10T23:50:37.321Z,231.17
2022-10-10T23:53:05.571Z,368.63
2022-10-10T23:55:34.016Z,231.30
2022-10-10T23:58:03.309Z,83.80
